Terminal Aerodrome Forecast
Issued by NWS

Home | Current Version | Previous Version | Text Only | Print | Product List | Glossary On
Versions: 1 2 3 4 5 6 7 8 9 10 11 12 13
000
FTUS44 KLZK 211506 AAA
TAFLLQ
TAF AMD
KLLQ 211506Z 2115/2212 14008G15KT P6SM VCSH BKN050 BKN250
     FM211600 17008KT P6SM VCSH SCT035 BKN050 BKN250
     FM220000 16008KT P6SM VCSH BKN060 BKN250
     FM220900 19008G16KT P6SM VCTS BKN050CB OVC100
      TEMPO 2209/2212 VRB15G30KT 3SM TSRA OVC030CB=

USA.gov is the U.S. government's official web portal to all federal, state and local government web resources and services.